Vremea acum in Anina - Romania

Vrei sa afli care e starea vremii acum in Caras-Severin - Romania? Dorim sa iti furnizam starea vremii pentru Caras-Severin - Romania. Starea vremii Caras-Severin - Romania pentru astazi.

Vremea acum in Anina

Temperatura: 9.3 °C

Este: Senin
Se simte ca: 8.4 °C
Innorat: 0 %
Precipitatii: 0 %
Presiune atmosferica: 1017 hPa
Umiditate: 73%
Vizibilitate: 10 km
Vantul bate din ESE cu 7.2 km/h

Evolutia vremii in Anina pe ore

Ora: 04:00
Senin
Temperatura: 9.3°C
Sansa de precipitatii: 0%
Ora Descriere Temp Se simte Precipitatii Umiditate Vant
00:00Senin10.3°9.8°0%73%ESE 6.1 KM/H
01:00Senin10°9.4°0%73%ESE 6.5 KM/H
02:00Senin9.7°0%73%ESE 6.8 KM/H
03:00Senin9.6°8.7°0%73%ESE 6.8 KM/H
04:00Senin9.3°8.4°0%73%ESE 7.2 KM/H
05:00Senin9.1°0%74%ESE 7.6 KM/H
06:00Senin8.7°7.8°0%75%ESE 6.5 KM/H
07:00Senin8.2°0%74%ESE 6.5 KM/H
08:00Senin12.8°12.9°0%68%SE 5 KM/H
09:00Senin17.1°17.1°0%58%SSE 4.7 KM/H
10:00Senin19.3°19.4°0%49%S 5.4 KM/H
11:00Senin21.2°21.2°0%42%SSW 7.2 KM/H
12:00Senin22.6°24.1°0%38%SSW 8.6 KM/H
13:00Senin23.6°24.4°0%36%SW 11.2 KM/H
14:00Senin24.2°24.6°0%36%SW 12.6 KM/H
15:00Senin24.6°24.8°0%35%SW 12.6 KM/H
16:00Senin24.7°24.9°0%35%SSW 12.2 KM/H
17:00Senin24.6°24.9°0%36%SSW 11.9 KM/H
18:00Senin24°24.9°0%42%SSW 10.8 KM/H
19:00Senin22°24.5°0%53%SSW 7.9 KM/H
20:00Senin17.1°17.1°0%60%SSE 7.6 KM/H
21:00Senin14.4°13.9°0%63%ESE 10.4 KM/H
22:00Senin13.4°12.5°0%64%ESE 11.9 KM/H
23:00Senin12.7°11.6°0%65%ESE 11.9 KM/H




tutorials